sensor_id;sensor_type;location;lat;lon;timestamp;P1;durP1;ratioP1;P2;durP2;ratioP2
48845;SDS011;34665;51.886;5.436;2024-03-22T00:02:16;77.72;;;31.90;;
48845;SDS011;34665;51.886;5.436;2024-03-22T00:04:41;73.53;;;30.07;;
48845;SDS011;34665;51.886;5.436;2024-03-22T00:07:07;80.50;;;31.87;;
48845;SDS011;34665;51.886;5.436;2024-03-22T00:09:32;81.93;;;31.63;;
48845;SDS011;34665;51.886;5.436;2024-03-22T00:11:58;72.90;;;31.15;;
48845;SDS011;34665;51.886;5.436;2024-03-22T00:14:24;79.07;;;32.33;;
48845;SDS011;34665;51.886;5.436;2024-03-22T00:16:49;77.63;;;31.02;;
48845;SDS011;34665;51.886;5.436;2024-03-22T00:19:14;77.87;;;32.07;;
48845;SDS011;34665;51.886;5.436;2024-03-22T00:21:40;85.60;;;33.33;;
48845;SDS011;34665;51.886;5.436;2024-03-22T00:24:05;80.60;;;31.83;;
48845;SDS011;34665;51.886;5.436;2024-03-22T00:26:30;80.27;;;29.83;;
48845;SDS011;34665;51.886;5.436;2024-03-22T00:28:56;77.38;;;32.28;;
48845;SDS011;34665;51.886;5.436;2024-03-22T00:31:23;82.30;;;33.83;;
48845;SDS011;34665;51.886;5.436;2024-03-22T00:33:49;75.15;;;32.38;;
48845;SDS011;34665;51.886;5.436;2024-03-22T00:36:14;84.07;;;31.20;;
48845;SDS011;34665;51.886;5.436;2024-03-22T00:38:39;82.23;;;31.53;;
48845;SDS011;34665;51.886;5.436;2024-03-22T00:41:05;73.40;;;31.08;;
48845;SDS011;34665;51.886;5.436;2024-03-22T00:43:32;81.23;;;31.97;;
48845;SDS011;34665;51.886;5.436;2024-03-22T00:45:57;72.27;;;30.03;;
48845;SDS011;34665;51.886;5.436;2024-03-22T00:50:49;75.27;;;31.63;;
48845;SDS011;34665;51.886;5.436;2024-03-22T00:53:15;76.73;;;32.10;;
48845;SDS011;34665;51.886;5.436;2024-03-22T00:55:40;84.43;;;32.07;;
48845;SDS011;34665;51.886;5.436;2024-03-22T00:58:05;77.80;;;30.73;;
48845;SDS011;34665;51.886;5.436;2024-03-22T01:00:31;81.73;;;34.40;;
48845;SDS011;34665;51.886;5.436;2024-03-22T01:02:56;81.20;;;32.70;;
48845;SDS011;34665;51.886;5.436;2024-03-22T01:05:22;79.90;;;32.55;;
48845;SDS011;34665;51.886;5.436;2024-03-22T01:07:48;88.27;;;34.43;;
48845;SDS011;34665;51.886;5.436;2024-03-22T01:10:13;80.72;;;31.00;;
48845;SDS011;34665;51.886;5.436;2024-03-22T01:12:38;76.33;;;30.63;;
48845;SDS011;34665;51.886;5.436;2024-03-22T01:15:05;79.65;;;31.83;;
48845;SDS011;34665;51.886;5.436;2024-03-22T01:17:31;79.32;;;33.17;;
48845;SDS011;34665;51.886;5.436;2024-03-22T01:19:56;82.00;;;32.20;;
48845;SDS011;34665;51.886;5.436;2024-03-22T01:22:22;81.75;;;32.58;;
48845;SDS011;34665;51.886;5.436;2024-03-22T01:24:48;69.63;;;30.80;;
48845;SDS011;34665;51.886;5.436;2024-03-22T01:27:13;79.65;;;32.20;;
48845;SDS011;34665;51.886;5.436;2024-03-22T01:29:39;81.30;;;33.53;;
48845;SDS011;34665;51.886;5.436;2024-03-22T01:32:05;76.70;;;31.92;;
48845;SDS011;34665;51.886;5.436;2024-03-22T01:34:30;74.55;;;32.50;;
48845;SDS011;34665;51.886;5.436;2024-03-22T01:36:55;79.13;;;32.90;;
48845;SDS011;34665;51.886;5.436;2024-03-22T01:39:21;76.43;;;32.53;;
48845;SDS011;34665;51.886;5.436;2024-03-22T01:41:47;78.85;;;31.55;;
48845;SDS011;34665;51.886;5.436;2024-03-22T01:44:13;81.50;;;32.45;;
48845;SDS011;34665;51.886;5.436;2024-03-22T01:46:42;83.95;;;33.80;;
48845;SDS011;34665;51.886;5.436;2024-03-22T01:49:09;72.73;;;30.07;;
48845;SDS011;34665;51.886;5.436;2024-03-22T01:51:35;79.00;;;31.92;;
48845;SDS011;34665;51.886;5.436;2024-03-22T01:54:02;83.18;;;31.80;;
48845;SDS011;34665;51.886;5.436;2024-03-22T01:56:28;76.60;;;32.37;;
48845;SDS011;34665;51.886;5.436;2024-03-22T01:58:54;77.27;;;29.90;;
48845;SDS011;34665;51.886;5.436;2024-03-22T02:03:45;75.23;;;33.00;;
48845;SDS011;34665;51.886;5.436;2024-03-22T02:06:11;72.80;;;30.77;;
48845;SDS011;34665;51.886;5.436;2024-03-22T02:08:36;79.43;;;32.92;;
48845;SDS011;34665;51.886;5.436;2024-03-22T02:11:03;82.75;;;33.67;;
48845;SDS011;34665;51.886;5.436;2024-03-22T02:13:28;75.90;;;34.83;;
48845;SDS011;34665;51.886;5.436;2024-03-22T02:15:53;72.83;;;31.80;;
48845;SDS011;34665;51.886;5.436;2024-03-22T02:18:19;79.83;;;31.33;;
48845;SDS011;34665;51.886;5.436;2024-03-22T02:20:44;85.10;;;32.43;;
48845;SDS011;34665;51.886;5.436;2024-03-22T02:23:10;71.65;;;30.42;;
48845;SDS011;34665;51.886;5.436;2024-03-22T02:25:35;71.30;;;29.98;;
48845;SDS011;34665;51.886;5.436;2024-03-22T02:28:01;70.25;;;29.70;;
48845;SDS011;34665;51.886;5.436;2024-03-22T02:30:26;67.15;;;30.20;;
48845;SDS011;34665;51.886;5.436;2024-03-22T02:32:52;64.65;;;28.58;;
48845;SDS011;34665;51.886;5.436;2024-03-22T02:35:17;64.97;;;29.10;;
48845;SDS011;34665;51.886;5.436;2024-03-22T02:37:42;69.87;;;29.33;;
48845;SDS011;34665;51.886;5.436;2024-03-22T02:40:08;78.57;;;31.42;;
48845;SDS011;34665;51.886;5.436;2024-03-22T02:42:34;79.82;;;30.00;;
48845;SDS011;34665;51.886;5.436;2024-03-22T02:44:59;74.25;;;31.13;;
48845;SDS011;34665;51.886;5.436;2024-03-22T02:47:25;69.35;;;30.60;;
48845;SDS011;34665;51.886;5.436;2024-03-22T02:49:50;61.03;;;28.75;;
48845;SDS011;34665;51.886;5.436;2024-03-22T02:52:16;72.32;;;31.25;;
48845;SDS011;34665;51.886;5.436;2024-03-22T02:54:41;70.17;;;30.10;;
48845;SDS011;34665;51.886;5.436;2024-03-22T02:57:07;75.60;;;30.48;;
48845;SDS011;34665;51.886;5.436;2024-03-22T02:59:32;74.80;;;32.40;;
48845;SDS011;34665;51.886;5.436;2024-03-22T03:01:58;65.60;;;27.98;;
48845;SDS011;34665;51.886;5.436;2024-03-22T03:04:23;64.32;;;29.10;;
48845;SDS011;34665;51.886;5.436;2024-03-22T03:06:48;74.63;;;29.43;;
48845;SDS011;34665;51.886;5.436;2024-03-22T03:09:14;66.53;;;30.90;;
48845;SDS011;34665;51.886;5.436;2024-03-22T03:11:40;59.75;;;27.90;;
48845;SDS011;34665;51.886;5.436;2024-03-22T03:14:06;65.60;;;28.15;;
48845;SDS011;34665;51.886;5.436;2024-03-22T03:16:32;58.65;;;28.15;;
48845;SDS011;34665;51.886;5.436;2024-03-22T03:18:57;56.90;;;27.13;;
48845;SDS011;34665;51.886;5.436;2024-03-22T03:21:23;64.03;;;29.23;;
48845;SDS011;34665;51.886;5.436;2024-03-22T03:23:48;64.38;;;26.52;;
48845;SDS011;34665;51.886;5.436;2024-03-22T03:26:14;69.13;;;28.52;;
48845;SDS011;34665;51.886;5.436;2024-03-22T03:28:39;59.80;;;26.02;;
48845;SDS011;34665;51.886;5.436;2024-03-22T03:31:05;70.80;;;29.88;;
48845;SDS011;34665;51.886;5.436;2024-03-22T03:33:30;64.90;;;26.93;;
48845;SDS011;34665;51.886;5.436;2024-03-22T03:35:56;66.07;;;28.70;;
48845;SDS011;34665;51.886;5.436;2024-03-22T03:38:21;49.95;;;24.00;;
48845;SDS011;34665;51.886;5.436;2024-03-22T03:40:47;56.67;;;25.65;;
48845;SDS011;34665;51.886;5.436;2024-03-22T03:43:13;53.97;;;25.27;;
48845;SDS011;34665;51.886;5.436;2024-03-22T03:45:38;56.60;;;25.15;;
48845;SDS011;34665;51.886;5.436;2024-03-22T03:48:04;59.60;;;25.33;;
48845;SDS011;34665;51.886;5.436;2024-03-22T03:50:29;61.45;;;26.05;;
48845;SDS011;34665;51.886;5.436;2024-03-22T03:52:55;58.47;;;25.27;;
48845;SDS011;34665;51.886;5.436;2024-03-22T03:55:21;58.25;;;26.25;;
48845;SDS011;34665;51.886;5.436;2024-03-22T03:57:47;59.92;;;26.40;;
48845;SDS011;34665;51.886;5.436;2024-03-22T04:00:12;62.20;;;27.10;;
48845;SDS011;34665;51.886;5.436;2024-03-22T04:02:37;62.43;;;27.73;;
48845;SDS011;34665;51.886;5.436;2024-03-22T04:05:03;60.05;;;26.25;;
48845;SDS011;34665;51.886;5.436;2024-03-22T04:07:29;53.40;;;23.98;;
48845;SDS011;34665;51.886;5.436;2024-03-22T04:09:54;63.65;;;25.95;;
48845;SDS011;34665;51.886;5.436;2024-03-22T04:12:20;58.58;;;24.73;;
48845;SDS011;34665;51.886;5.436;2024-03-22T04:14:45;68.80;;;26.38;;
48845;SDS011;34665;51.886;5.436;2024-03-22T04:17:10;53.67;;;23.03;;
48845;SDS011;34665;51.886;5.436;2024-03-22T04:19:36;57.40;;;24.95;;
48845;SDS011;34665;51.886;5.436;2024-03-22T04:22:02;60.25;;;26.30;;
48845;SDS011;34665;51.886;5.436;2024-03-22T04:24:27;63.88;;;24.25;;
48845;SDS011;34665;51.886;5.436;2024-03-22T04:26:53;59.77;;;24.67;;
48845;SDS011;34665;51.886;5.436;2024-03-22T04:29:18;62.90;;;26.77;;
48845;SDS011;34665;51.886;5.436;2024-03-22T04:31:43;52.77;;;22.27;;
48845;SDS011;34665;51.886;5.436;2024-03-22T04:34:09;54.65;;;23.52;;
48845;SDS011;34665;51.886;5.436;2024-03-22T04:36:36;51.37;;;22.37;;
48845;SDS011;34665;51.886;5.436;2024-03-22T04:39:01;64.13;;;24.77;;
48845;SDS011;34665;51.886;5.436;2024-03-22T04:41:27;49.17;;;22.67;;
48845;SDS011;34665;51.886;5.436;2024-03-22T04:43:52;55.87;;;23.17;;
48845;SDS011;34665;51.886;5.436;2024-03-22T04:46:18;53.73;;;22.90;;
48845;SDS011;34665;51.886;5.436;2024-03-22T04:48:43;58.83;;;24.08;;
48845;SDS011;34665;51.886;5.436;2024-03-22T04:51:09;60.33;;;24.37;;
48845;SDS011;34665;51.886;5.436;2024-03-22T04:53:34;51.55;;;23.42;;
48845;SDS011;34665;51.886;5.436;2024-03-22T04:56:00;55.17;;;24.17;;
48845;SDS011;34665;51.886;5.436;2024-03-22T04:58:25;61.13;;;24.33;;
48845;SDS011;34665;51.886;5.436;2024-03-22T05:00:55;48.77;;;22.13;;
48845;SDS011;34665;51.886;5.436;2024-03-22T05:03:21;58.03;;;24.43;;
48845;SDS011;34665;51.886;5.436;2024-03-22T05:05:47;53.92;;;21.38;;
48845;SDS011;34665;51.886;5.436;2024-03-22T05:08:12;57.20;;;24.25;;
48845;SDS011;34665;51.886;5.436;2024-03-22T05:10:38;54.30;;;23.20;;
48845;SDS011;34665;51.886;5.436;2024-03-22T05:13:03;53.15;;;23.42;;
48845;SDS011;34665;51.886;5.436;2024-03-22T05:15:29;55.13;;;22.45;;
48845;SDS011;34665;51.886;5.436;2024-03-22T05:17:55;44.63;;;21.93;;
48845;SDS011;34665;51.886;5.436;2024-03-22T05:22:49;56.10;;;23.50;;
48845;SDS011;34665;51.886;5.436;2024-03-22T05:25:14;52.10;;;21.70;;
48845;SDS011;34665;51.886;5.436;2024-03-22T05:27:40;49.23;;;22.73;;
48845;SDS011;34665;51.886;5.436;2024-03-22T05:32:32;55.03;;;22.10;;
48845;SDS011;34665;51.886;5.436;2024-03-22T05:34:58;41.55;;;18.35;;
48845;SDS011;34665;51.886;5.436;2024-03-22T05:37:23;44.73;;;20.07;;
48845;SDS011;34665;51.886;5.436;2024-03-22T05:39:49;50.17;;;19.97;;
48845;SDS011;34665;51.886;5.436;2024-03-22T05:42:14;52.72;;;21.95;;
48845;SDS011;34665;51.886;5.436;2024-03-22T05:44:40;44.50;;;21.10;;
48845;SDS011;34665;51.886;5.436;2024-03-22T05:47:05;47.78;;;20.88;;
48845;SDS011;34665;51.886;5.436;2024-03-22T05:49:31;52.30;;;23.63;;
48845;SDS011;34665;51.886;5.436;2024-03-22T05:51:57;54.17;;;21.85;;
48845;SDS011;34665;51.886;5.436;2024-03-22T05:54:22;53.08;;;23.65;;
48845;SDS011;34665;51.886;5.436;2024-03-22T05:56:47;47.03;;;19.93;;
48845;SDS011;34665;51.886;5.436;2024-03-22T05:59:13;55.15;;;23.50;;
48845;SDS011;34665;51.886;5.436;2024-03-22T06:01:39;46.50;;;20.87;;
48845;SDS011;34665;51.886;5.436;2024-03-22T06:04:04;46.70;;;20.53;;
48845;SDS011;34665;51.886;5.436;2024-03-22T06:06:34;45.38;;;21.65;;
48845;SDS011;34665;51.886;5.436;2024-03-22T06:08:59;43.93;;;21.10;;
48845;SDS011;34665;51.886;5.436;2024-03-22T06:11:29;46.43;;;19.97;;
48845;SDS011;34665;51.886;5.436;2024-03-22T06:13:55;40.53;;;19.20;;
48845;SDS011;34665;51.886;5.436;2024-03-22T06:16:20;48.45;;;21.17;;
48845;SDS011;34665;51.886;5.436;2024-03-22T06:18:46;47.92;;;20.77;;
48845;SDS011;34665;51.886;5.436;2024-03-22T06:21:11;44.70;;;20.52;;
48845;SDS011;34665;51.886;5.436;2024-03-22T06:23:39;45.27;;;18.57;;
48845;SDS011;34665;51.886;5.436;2024-03-22T06:26:04;48.63;;;19.93;;
48845;SDS011;34665;51.886;5.436;2024-03-22T06:28:30;48.92;;;19.48;;
48845;SDS011;34665;51.886;5.436;2024-03-22T06:30:55;43.90;;;19.97;;
48845;SDS011;34665;51.886;5.436;2024-03-22T06:33:21;50.60;;;21.83;;
48845;SDS011;34665;51.886;5.436;2024-03-22T06:35:47;40.30;;;18.77;;
48845;SDS011;34665;51.886;5.436;2024-03-22T06:38:13;42.25;;;19.40;;
48845;SDS011;34665;51.886;5.436;2024-03-22T06:40:39;40.03;;;20.30;;
48845;SDS011;34665;51.886;5.436;2024-03-22T06:43:04;46.57;;;19.47;;
48845;SDS011;34665;51.886;5.436;2024-03-22T06:45:30;39.47;;;18.87;;
48845;SDS011;34665;51.886;5.436;2024-03-22T06:47:55;41.85;;;18.90;;
48845;SDS011;34665;51.886;5.436;2024-03-22T06:50:21;39.88;;;19.38;;
48845;SDS011;34665;51.886;5.436;2024-03-22T06:52:50;38.77;;;18.23;;
48845;SDS011;34665;51.886;5.436;2024-03-22T06:55:17;46.03;;;20.63;;
48845;SDS011;34665;51.886;5.436;2024-03-22T06:57:42;40.38;;;19.42;;
48845;SDS011;34665;51.886;5.436;2024-03-22T07:00:10;45.87;;;19.97;;
48845;SDS011;34665;51.886;5.436;2024-03-22T07:02:35;38.50;;;18.60;;
48845;SDS011;34665;51.886;5.436;2024-03-22T07:05:00;39.00;;;17.47;;
48845;SDS011;34665;51.886;5.436;2024-03-22T07:07:26;38.22;;;18.40;;
48845;SDS011;34665;51.886;5.436;2024-03-22T07:09:52;46.58;;;17.48;;
48845;SDS011;34665;51.886;5.436;2024-03-22T07:12:17;38.78;;;18.00;;
48845;SDS011;34665;51.886;5.436;2024-03-22T07:14:42;39.33;;;18.07;;
48845;SDS011;34665;51.886;5.436;2024-03-22T07:17:08;43.75;;;21.15;;
48845;SDS011;34665;51.886;5.436;2024-03-22T07:19:34;48.00;;;20.23;;
48845;SDS011;34665;51.886;5.436;2024-03-22T07:22:00;40.92;;;19.42;;
48845;SDS011;34665;51.886;5.436;2024-03-22T07:24:25;41.30;;;19.35;;
48845;SDS011;34665;51.886;5.436;2024-03-22T07:26:51;44.83;;;19.23;;
48845;SDS011;34665;51.886;5.436;2024-03-22T07:29:16;41.53;;;18.67;;
48845;SDS011;34665;51.886;5.436;2024-03-22T07:31:42;40.80;;;19.17;;
48845;SDS011;34665;51.886;5.436;2024-03-22T07:34:07;41.30;;;19.05;;
48845;SDS011;34665;51.886;5.436;2024-03-22T07:36:37;45.85;;;21.80;;
48845;SDS011;34665;51.886;5.436;2024-03-22T07:39:03;44.43;;;21.23;;
48845;SDS011;34665;51.886;5.436;2024-03-22T07:41:32;48.87;;;21.07;;
48845;SDS011;34665;51.886;5.436;2024-03-22T07:43:58;52.58;;;22.77;;
48845;SDS011;34665;51.886;5.436;2024-03-22T07:46:24;51.65;;;21.42;;
48845;SDS011;34665;51.886;5.436;2024-03-22T07:48:49;43.57;;;20.50;;
48845;SDS011;34665;51.886;5.436;2024-03-22T07:51:15;53.88;;;21.50;;
48845;SDS011;34665;51.886;5.436;2024-03-22T07:53:40;47.78;;;20.83;;
48845;SDS011;34665;51.886;5.436;2024-03-22T07:56:06;54.50;;;21.73;;
48845;SDS011;34665;51.886;5.436;2024-03-22T07:58:31;43.58;;;19.90;;
48845;SDS011;34665;51.886;5.436;2024-03-22T08:00:57;47.80;;;21.60;;
48845;SDS011;34665;51.886;5.436;2024-03-22T08:03:22;52.63;;;23.65;;
48845;SDS011;34665;51.886;5.436;2024-03-22T08:05:49;51.97;;;22.90;;
48845;SDS011;34665;51.886;5.436;2024-03-22T08:08:15;58.13;;;24.77;;
48845;SDS011;34665;51.886;5.436;2024-03-22T08:10:40;60.45;;;26.60;;
48845;SDS011;34665;51.886;5.436;2024-03-22T08:13:05;61.80;;;26.83;;
48845;SDS011;34665;51.886;5.436;2024-03-22T08:15:31;56.75;;;22.92;;
48845;SDS011;34665;51.886;5.436;2024-03-22T08:17:57;54.55;;;21.88;;
48845;SDS011;34665;51.886;5.436;2024-03-22T08:20:25;56.40;;;24.83;;
48845;SDS011;34665;51.886;5.436;2024-03-22T08:22:51;44.58;;;20.63;;
48845;SDS011;34665;51.886;5.436;2024-03-22T08:25:16;50.33;;;23.50;;
48845;SDS011;34665;51.886;5.436;2024-03-22T08:27:45;57.60;;;24.23;;
48845;SDS011;34665;51.886;5.436;2024-03-22T08:30:11;52.47;;;23.43;;
48845;SDS011;34665;51.886;5.436;2024-03-22T08:32:36;55.08;;;22.40;;
48845;SDS011;34665;51.886;5.436;2024-03-22T08:35:03;52.92;;;24.38;;
48845;SDS011;34665;51.886;5.436;2024-03-22T08:37:32;53.17;;;21.93;;
48845;SDS011;34665;51.886;5.436;2024-03-22T08:39:58;51.90;;;22.17;;
48845;SDS011;34665;51.886;5.436;2024-03-22T08:42:24;52.70;;;23.20;;
48845;SDS011;34665;51.886;5.436;2024-03-22T08:44:49;61.33;;;23.23;;
48845;SDS011;34665;51.886;5.436;2024-03-22T08:47:15;49.95;;;22.23;;
48845;SDS011;34665;51.886;5.436;2024-03-22T08:49:40;56.17;;;22.65;;
48845;SDS011;34665;51.886;5.436;2024-03-22T08:52:08;49.87;;;23.10;;
48845;SDS011;34665;51.886;5.436;2024-03-22T08:54:34;52.33;;;21.80;;
48845;SDS011;34665;51.886;5.436;2024-03-22T08:57:00;52.50;;;21.92;;
48845;SDS011;34665;51.886;5.436;2024-03-22T08:59:25;52.40;;;22.83;;
48845;SDS011;34665;51.886;5.436;2024-03-22T09:04:18;48.80;;;20.57;;
48845;SDS011;34665;51.886;5.436;2024-03-22T09:06:44;46.90;;;22.38;;
48845;SDS011;34665;51.886;5.436;2024-03-22T09:09:10;43.63;;;21.37;;
48845;SDS011;34665;51.886;5.436;2024-03-22T09:11:37;54.35;;;23.70;;
48845;SDS011;34665;51.886;5.436;2024-03-22T09:14:02;51.57;;;22.97;;
48845;SDS011;34665;51.886;5.436;2024-03-22T09:16:28;48.80;;;20.73;;
48845;SDS011;34665;51.886;5.436;2024-03-22T09:18:53;44.80;;;19.97;;
48845;SDS011;34665;51.886;5.436;2024-03-22T09:23:45;41.13;;;20.20;;
48845;SDS011;34665;51.886;5.436;2024-03-22T09:26:10;50.50;;;21.57;;
48845;SDS011;34665;51.886;5.436;2024-03-22T09:28:35;43.97;;;20.70;;
48845;SDS011;34665;51.886;5.436;2024-03-22T09:31:05;45.28;;;21.52;;
48845;SDS011;34665;51.886;5.436;2024-03-22T09:33:33;46.93;;;19.23;;
48845;SDS011;34665;51.886;5.436;2024-03-22T09:35:58;43.08;;;19.90;;
48845;SDS011;34665;51.886;5.436;2024-03-22T09:38:23;48.93;;;21.97;;
48845;SDS011;34665;51.886;5.436;2024-03-22T09:40:49;51.97;;;20.27;;
48845;SDS011;34665;51.886;5.436;2024-03-22T09:43:19;45.43;;;20.83;;
48845;SDS011;34665;51.886;5.436;2024-03-22T09:45:45;49.63;;;21.35;;
48845;SDS011;34665;51.886;5.436;2024-03-22T09:48:11;40.50;;;18.52;;
48845;SDS011;34665;51.886;5.436;2024-03-22T09:50:37;60.65;;;21.63;;
48845;SDS011;34665;51.886;5.436;2024-03-22T09:53:03;48.67;;;22.40;;
48845;SDS011;34665;51.886;5.436;2024-03-22T09:55:28;41.50;;;20.17;;
48845;SDS011;34665;51.886;5.436;2024-03-22T09:57:55;40.10;;;19.42;;
48845;SDS011;34665;51.886;5.436;2024-03-22T10:00:20;61.65;;;23.92;;
48845;SDS011;34665;51.886;5.436;2024-03-22T10:02:48;56.00;;;23.10;;
48845;SDS011;34665;51.886;5.436;2024-03-22T10:05:15;52.45;;;20.98;;
48845;SDS011;34665;51.886;5.436;2024-03-22T10:07:40;42.47;;;20.27;;
48845;SDS011;34665;51.886;5.436;2024-03-22T10:10:06;43.70;;;21.17;;
48845;SDS011;34665;51.886;5.436;2024-03-22T10:12:32;70.32;;;23.70;;
48845;SDS011;34665;51.886;5.436;2024-03-22T10:14:58;49.58;;;23.98;;
48845;SDS011;34665;51.886;5.436;2024-03-22T10:17:23;63.07;;;24.40;;
48845;SDS011;34665;51.886;5.436;2024-03-22T10:19:51;75.20;;;31.20;;
48845;SDS011;34665;51.886;5.436;2024-03-22T10:22:16;88.37;;;31.53;;
48845;SDS011;34665;51.886;5.436;2024-03-22T10:24:43;72.53;;;30.70;;
48845;SDS011;34665;51.886;5.436;2024-03-22T10:27:09;60.38;;;24.42;;
48845;SDS011;34665;51.886;5.436;2024-03-22T10:29:35;54.72;;;25.55;;
48845;SDS011;34665;51.886;5.436;2024-03-22T10:32:01;62.25;;;26.40;;
48845;SDS011;34665;51.886;5.436;2024-03-22T10:34:27;62.42;;;27.88;;
48845;SDS011;34665;51.886;5.436;2024-03-22T10:39:18;69.10;;;24.30;;
48845;SDS011;34665;51.886;5.436;2024-03-22T10:41:47;62.03;;;23.63;;
48845;SDS011;34665;51.886;5.436;2024-03-22T10:44:13;50.77;;;22.20;;
48845;SDS011;34665;51.886;5.436;2024-03-22T10:46:40;46.22;;;21.58;;
48845;SDS011;34665;51.886;5.436;2024-03-22T10:49:09;47.37;;;20.37;;
48845;SDS011;34665;51.886;5.436;2024-03-22T10:51:34;43.90;;;19.60;;
48845;SDS011;34665;51.886;5.436;2024-03-22T10:56:26;38.80;;;16.15;;
48845;SDS011;34665;51.886;5.436;2024-03-22T10:58:51;44.80;;;19.58;;
48845;SDS011;34665;51.886;5.436;2024-03-22T11:01:21;39.17;;;16.50;;
48845;SDS011;34665;51.886;5.436;2024-03-22T11:03:47;36.37;;;17.97;;
48845;SDS011;34665;51.886;5.436;2024-03-22T11:06:12;45.37;;;16.37;;
48845;SDS011;34665;51.886;5.436;2024-03-22T11:08:37;37.07;;;16.70;;
48845;SDS011;34665;51.886;5.436;2024-03-22T11:11:10;38.00;;;16.17;;
48845;SDS011;34665;51.886;5.436;2024-03-22T11:13:36;39.70;;;15.97;;
48845;SDS011;34665;51.886;5.436;2024-03-22T11:16:02;29.05;;;13.93;;
48845;SDS011;34665;51.886;5.436;2024-03-22T11:18:28;36.72;;;16.13;;
48845;SDS011;34665;51.886;5.436;2024-03-22T11:20:53;31.70;;;15.80;;
48845;SDS011;34665;51.886;5.436;2024-03-22T11:23:19;38.33;;;16.37;;
48845;SDS011;34665;51.886;5.436;2024-03-22T11:25:45;32.55;;;15.90;;
48845;SDS011;34665;51.886;5.436;2024-03-22T11:28:11;35.33;;;15.65;;
48845;SDS011;34665;51.886;5.436;2024-03-22T11:30:37;32.33;;;14.13;;
48845;SDS011;34665;51.886;5.436;2024-03-22T11:33:03;32.20;;;13.02;;
48845;SDS011;34665;51.886;5.436;2024-03-22T11:35:29;30.23;;;14.52;;
48845;SDS011;34665;51.886;5.436;2024-03-22T11:37:55;27.50;;;13.93;;
48845;SDS011;34665;51.886;5.436;2024-03-22T11:40:21;25.77;;;12.50;;
48845;SDS011;34665;51.886;5.436;2024-03-22T11:42:49;26.90;;;13.13;;
48845;SDS011;34665;51.886;5.436;2024-03-22T11:45:16;33.90;;;14.57;;
48845;SDS011;34665;51.886;5.436;2024-03-22T11:47:42;30.83;;;13.50;;
48845;SDS011;34665;51.886;5.436;2024-03-22T11:50:09;22.30;;;10.93;;
48845;SDS011;34665;51.886;5.436;2024-03-22T11:52:35;27.10;;;12.90;;
48845;SDS011;34665;51.886;5.436;2024-03-22T11:55:00;25.33;;;11.80;;
48845;SDS011;34665;51.886;5.436;2024-03-22T11:57:26;21.52;;;11.85;;
48845;SDS011;34665;51.886;5.436;2024-03-22T11:59:51;25.60;;;12.10;;
48845;SDS011;34665;51.886;5.436;2024-03-22T12:02:17;27.20;;;12.25;;
48845;SDS011;34665;51.886;5.436;2024-03-22T12:04:43;29.27;;;10.77;;
48845;SDS011;34665;51.886;5.436;2024-03-22T12:07:16;21.17;;;11.95;;
48845;SDS011;34665;51.886;5.436;2024-03-22T12:09:42;24.77;;;11.67;;
48845;SDS011;34665;51.886;5.436;2024-03-22T12:12:08;20.63;;;10.23;;
48845;SDS011;34665;51.886;5.436;2024-03-22T12:14:34;32.00;;;12.48;;
48845;SDS011;34665;51.886;5.436;2024-03-22T12:17:01;21.48;;;10.18;;
48845;SDS011;34665;51.886;5.436;2024-03-22T12:19:27;32.40;;;13.93;;
48845;SDS011;34665;51.886;5.436;2024-03-22T12:21:52;33.72;;;13.73;;
48845;SDS011;34665;51.886;5.436;2024-03-22T12:24:18;39.13;;;15.85;;
48845;SDS011;34665;51.886;5.436;2024-03-22T12:26:43;39.47;;;15.33;;
48845;SDS011;34665;51.886;5.436;2024-03-22T12:29:09;45.88;;;16.80;;
48845;SDS011;34665;51.886;5.436;2024-03-22T12:31:39;45.10;;;16.00;;
48845;SDS011;34665;51.886;5.436;2024-03-22T12:34:04;42.20;;;14.97;;
48845;SDS011;34665;51.886;5.436;2024-03-22T12:36:30;45.83;;;14.93;;
48845;SDS011;34665;51.886;5.436;2024-03-22T12:38:55;43.25;;;14.95;;
48845;SDS011;34665;51.886;5.436;2024-03-22T12:41:21;46.20;;;17.92;;
48845;SDS011;34665;51.886;5.436;2024-03-22T12:43:46;44.50;;;16.05;;
48845;SDS011;34665;51.886;5.436;2024-03-22T12:46:12;40.40;;;14.63;;
48845;SDS011;34665;51.886;5.436;2024-03-22T12:48:37;44.97;;;15.13;;
48845;SDS011;34665;51.886;5.436;2024-03-22T12:53:29;24.30;;;10.73;;
48845;SDS011;34665;51.886;5.436;2024-03-22T12:55:55;22.50;;;10.18;;
48845;SDS011;34665;51.886;5.436;2024-03-22T12:58:20;25.15;;;8.82;;
48845;SDS011;34665;51.886;5.436;2024-03-22T13:00:46;19.98;;;8.75;;
48845;SDS011;34665;51.886;5.436;2024-03-22T13:03:11;19.65;;;10.18;;
48845;SDS011;34665;51.886;5.436;2024-03-22T13:05:38;25.43;;;12.87;;
48845;SDS011;34665;51.886;5.436;2024-03-22T13:08:04;25.30;;;13.13;;
48845;SDS011;34665;51.886;5.436;2024-03-22T13:10:30;24.42;;;11.63;;
48845;SDS011;34665;51.886;5.436;2024-03-22T13:12:55;30.73;;;13.77;;
48845;SDS011;34665;51.886;5.436;2024-03-22T13:15:21;26.60;;;11.73;;
48845;SDS011;34665;51.886;5.436;2024-03-22T13:17:46;29.67;;;13.88;;
48845;SDS011;34665;51.886;5.436;2024-03-22T13:20:12;27.00;;;12.20;;
48845;SDS011;34665;51.886;5.436;2024-03-22T13:22:40;26.03;;;13.63;;
48845;SDS011;34665;51.886;5.436;2024-03-22T13:25:06;28.25;;;12.98;;
48845;SDS011;34665;51.886;5.436;2024-03-22T13:27:34;31.43;;;12.83;;
48845;SDS011;34665;51.886;5.436;2024-03-22T13:30:00;27.83;;;12.68;;
48845;SDS011;34665;51.886;5.436;2024-03-22T13:32:26;27.67;;;12.95;;
48845;SDS011;34665;51.886;5.436;2024-03-22T13:34:52;27.15;;;12.65;;
48845;SDS011;34665;51.886;5.436;2024-03-22T13:37:18;25.13;;;12.13;;
48845;SDS011;34665;51.886;5.436;2024-03-22T13:39:43;38.53;;;12.90;;
48845;SDS011;34665;51.886;5.436;2024-03-22T13:42:12;29.80;;;12.87;;
48845;SDS011;34665;51.886;5.436;2024-03-22T13:44:38;28.60;;;13.30;;
48845;SDS011;34665;51.886;5.436;2024-03-22T13:47:03;31.75;;;13.48;;
48845;SDS011;34665;51.886;5.436;2024-03-22T13:49:30;26.45;;;12.32;;
48845;SDS011;34665;51.886;5.436;2024-03-22T13:51:57;22.75;;;11.65;;
48845;SDS011;34665;51.886;5.436;2024-03-22T13:54:23;34.03;;;13.03;;
48845;SDS011;34665;51.886;5.436;2024-03-22T13:56:49;26.63;;;12.67;;
48845;SDS011;34665;51.886;5.436;2024-03-22T13:59:14;29.92;;;13.82;;
48845;SDS011;34665;51.886;5.436;2024-03-22T14:01:41;30.80;;;13.83;;
48845;SDS011;34665;51.886;5.436;2024-03-22T14:04:09;29.43;;;14.27;;
48845;SDS011;34665;51.886;5.436;2024-03-22T14:06:36;38.17;;;13.13;;
48845;SDS011;34665;51.886;5.436;2024-03-22T14:09:02;34.22;;;13.77;;
48845;SDS011;34665;51.886;5.436;2024-03-22T14:11:28;32.07;;;13.40;;
48845;SDS011;34665;51.886;5.436;2024-03-22T14:13:55;31.43;;;13.33;;
48845;SDS011;34665;51.886;5.436;2024-03-22T14:16:21;31.40;;;13.65;;
48845;SDS011;34665;51.886;5.436;2024-03-22T14:18:46;27.27;;;14.05;;
48845;SDS011;34665;51.886;5.436;2024-03-22T14:21:13;34.53;;;12.43;;
48845;SDS011;34665;51.886;5.436;2024-03-22T14:23:43;27.73;;;12.57;;
48845;SDS011;34665;51.886;5.436;2024-03-22T14:26:09;27.83;;;9.48;;
48845;SDS011;34665;51.886;5.436;2024-03-22T14:28:35;24.15;;;9.23;;
48845;SDS011;34665;51.886;5.436;2024-03-22T14:31:02;26.80;;;9.03;;
48845;SDS011;34665;51.886;5.436;2024-03-22T14:33:27;36.33;;;11.02;;
48845;SDS011;34665;51.886;5.436;2024-03-22T14:35:53;25.60;;;8.13;;